PWSweather.com
Personal Weather Stations
Station Observations
CRNINF
Briga AltaIT

Briga AltaIT

Lat: 44.1474858, Lon: 7.7359028

Elevation: 4542.8

Station Type: PCE-FWS20

Latest ConditionsUpdated 8:00:09 PM GMT+01:01 Tuesday, Nov 12, 2019
Currently Today's Max Today's Min Today's Average
Temperature 42.4°F5.8°C 46.0°F7.8°C 30.6°F-0.8°C 39.9°F4.4°C
Dew Point 4.2°F-15.4°C 30.9°F-0.6°C 3.8°F-15.7°C 17.7°F-7.9°C
Winds 6.4 mph WNW10.3 kmh WNW 9.9 mph -15.9 kmh - - 5.3 mph 8.5 kmh
Wind Gusts 20.6 mph33.2 kmh 24.4 mph39.3 kmh - -
Humidity 20% 89% 20% 44%
Pressure 29.21 in989.2 mb 29.45 in997.3 mb 29.21 in989.2 mb -
Precipitation - 0.04 in1.0 mm - -
Hour Temp Dew Point Humidity Winds Wind Gusts Pressure Precip Precip Rate Daily Precip Total
08:00 PM 42.4°F5.8°C 4.2°F-15.4°C 20% 6.4 mph WNW10.3 kmh WNW 20.6 mph33.2 kmh 29.21 in989.2 mb 0.00 in0.0 mm 0.00 in0.0 mm 0.04 in1.0 mm
07:45 PM 42.6°F5.9°C 5.5°F-14.7°C 21% 8.7 mph W14.0 kmh W 22.1 mph35.6 kmh 29.22 in989.5 mb 0.00 in0.0 mm 0.00 in0.0 mm 0.04 in1.0 mm
07:30 PM 41.9°F5.5°C 3.8°F-15.7°C 20% 8.7 mph W14.0 kmh W 19.0 mph30.6 kmh 29.23 in989.8 mb 0.00 in0.0 mm 0.00 in0.0 mm 0.04 in1.0 mm
07:15 PM 42.4°F5.8°C 5.3°F-14.8°C 21% 8.1 mph NW13.0 kmh NW 16.8 mph27.0 kmh 29.23 in989.8 mb 0.00 in0.0 mm 0.00 in0.0 mm 0.04 in1.0 mm
07:00 PM 41.9°F5.5°C 4.9°F-15.1°C 21% 5.9 mph W9.5 kmh W 14.5 mph23.3 kmh 29.24 in990.2 mb 0.00 in0.0 mm 0.00 in0.0 mm 0.04 in1.0 mm
06:45 PM 41.9°F5.5°C 3.8°F-15.7°C 20% 6.2 mph W10.0 kmh W 15.2 mph24.5 kmh 29.25 in990.5 mb 0.00 in0.0 mm 0.00 in0.0 mm 0.04 in1.0 mm
06:30 PM 41.5°F5.3°C 4.6°F-15.2°C 21% 4.4 mph W7.1 kmh W 14.5 mph23.3 kmh 29.25 in990.5 mb 0.00 in0.0 mm 0.00 in0.0 mm 0.04 in1.0 mm
06:15 PM 41.5°F5.3°C 4.6°F-15.2°C 21% 5.7 mph E9.2 kmh E 16.8 mph27.0 kmh 29.25 in990.5 mb 0.00 in0.0 mm 0.00 in0.0 mm 0.04 in1.0 mm
06:00 PM 41.2°F5.1°C 4.2°F-15.4°C 21% 4.7 mph WSW7.6 kmh WSW 13.0 mph20.9 kmh 29.25 in990.5 mb 0.00 in0.0 mm 0.00 in0.0 mm 0.04 in1.0 mm
05:45 PM 41.0°F5.0°C 4.1°F-15.5°C 21% 6.2 mph WNW10.0 kmh WNW 13.6 mph21.9 kmh 29.25 in990.5 mb 0.00 in0.0 mm 0.00 in0.0 mm 0.04 in1.0 mm
05:30 PM 40.6°F4.8°C 4.8°F-15.1°C 22% 6.0 mph W9.7 kmh W 17.4 mph28.0 kmh 29.25 in990.5 mb 0.00 in0.0 mm 0.00 in0.0 mm 0.04 in1.0 mm
05:15 PM 40.8°F4.9°C 5.9°F-14.5°C 23% 8.3 mph W13.4 kmh W 19.7 mph31.7 kmh 29.26 in990.9 mb 0.00 in0.0 mm 0.00 in0.0 mm 0.04 in1.0 mm
05:00 PM 40.5°F4.7°C 5.6°F-14.7°C 23% 9.9 mph WNW15.9 kmh WNW 24.4 mph39.3 kmh 29.27 in991.2 mb 0.00 in0.0 mm 0.00 in0.0 mm 0.04 in1.0 mm
04:45 PM 40.3°F4.6°C 8.2°F-13.2°C 26% 9.6 mph W15.4 kmh W 19.0 mph30.6 kmh 29.26 in990.9 mb 0.00 in0.0 mm 0.00 in0.0 mm 0.04 in1.0 mm
04:30 PM 40.3°F4.6°C 9.8°F-12.3°C 28% 8.8 mph W14.2 kmh W 19.0 mph30.6 kmh 29.27 in991.2 mb 0.00 in0.0 mm 0.00 in0.0 mm 0.04 in1.0 mm
04:15 PM 40.1°F4.5°C 12.6°F-10.8°C 32% 7.5 mph WSW12.1 kmh WSW 18.3 mph29.5 kmh 29.27 in991.2 mb 0.00 in0.0 mm 0.00 in0.0 mm 0.04 in1.0 mm
04:00 PM 40.5°F4.7°C 13.7°F-10.2°C 33% 5.8 mph NW9.3 kmh NW 15.2 mph24.5 kmh 29.27 in991.2 mb 0.00 in0.0 mm 0.00 in0.0 mm 0.04 in1.0 mm
03:45 PM 40.8°F4.9°C 12.6°F-10.8°C 31% 5.9 mph W9.5 kmh W 15.2 mph24.5 kmh 29.28 in991.5 mb 0.00 in0.0 mm 0.00 in0.0 mm 0.04 in1.0 mm
03:30 PM 40.6°F4.8°C 16.4°F-8.7°C 37% 5.3 mph W8.5 kmh W 13.0 mph20.9 kmh 29.27 in991.2 mb 0.00 in0.0 mm 0.00 in0.0 mm 0.04 in1.0 mm
03:15 PM 40.5°F4.7°C 16.9°F-8.4°C 38% 6.6 mph W10.6 kmh W 17.4 mph28.0 kmh 29.29 in991.9 mb 0.00 in0.0 mm 0.00 in0.0 mm 0.04 in1.0 mm
03:00 PM 40.8°F4.9°C 17.2°F-8.2°C 38% 6.5 mph NW10.5 kmh NW 18.3 mph29.5 kmh 29.29 in991.9 mb 0.00 in0.0 mm 0.00 in0.0 mm 0.04 in1.0 mm
02:45 PM 40.8°F4.9°C 18.4°F-7.6°C 40% 7.0 mph NNW11.3 kmh NNW 19.0 mph30.6 kmh 29.29 in991.9 mb 0.00 in0.0 mm 0.00 in0.0 mm 0.04 in1.0 mm
02:30 PM 40.3°F4.6°C 19.6°F-6.9°C 43% 4.1 mph NNE6.6 kmh NNE 12.1 mph19.5 kmh 29.29 in991.9 mb 0.00 in0.0 mm 0.00 in0.0 mm 0.04 in1.0 mm
02:15 PM 40.8°F4.9°C 20.1°F-6.6°C 43% 3.7 mph W6.0 kmh W 12.1 mph19.5 kmh 29.29 in991.9 mb 0.00 in0.0 mm 0.00 in0.0 mm 0.04 in1.0 mm
02:00 PM 41.4°F5.2°C 17.7°F-7.9°C 38% 5.5 mph W8.9 kmh W 11.4 mph18.3 kmh 29.29 in991.9 mb 0.00 in0.0 mm 0.00 in0.0 mm 0.04 in1.0 mm
01:45 PM 43.5°F6.4°C 14.9°F-9.5°C 31% 7.2 mph SE11.6 kmh SE 21.3 mph34.3 kmh 29.30 in992.2 mb 0.00 in0.0 mm 0.00 in0.0 mm 0.04 in1.0 mm
01:30 PM 46.0°F7.8°C 17.1°F-8.3°C 31% 5.5 mph SE8.9 kmh SE 13.0 mph20.9 kmh 29.31 in992.6 mb 0.00 in0.0 mm 0.00 in0.0 mm 0.04 in1.0 mm
01:15 PM 46.0°F7.8°C 19.9°F-6.7°C 35% 5.2 mph S8.4 kmh S 12.1 mph19.5 kmh 29.30 in992.2 mb 0.00 in0.0 mm 0.00 in0.0 mm 0.04 in1.0 mm
01:00 PM 45.3°F7.4°C 19.3°F-7.1°C 35% 5.8 mph S9.3 kmh S 13.0 mph20.9 kmh 29.30 in992.2 mb 0.04 in1.0 mm 0.00 in0.0 mm 0.04 in1.0 mm
12:45 PM 44.6°F7.0°C 18.7°F-7.4°C 35% 7.3 mph E11.7 kmh E 19.0 mph30.6 kmh 29.30 in992.2 mb 0.04 in1.0 mm 0.00 in0.0 mm 0.04 in1.0 mm
12:30 PM 45.1°F7.3°C 17.8°F-7.9°C 33% 5.8 mph ESE9.3 kmh ESE 14.5 mph23.3 kmh 29.32 in992.9 mb 0.04 in1.0 mm 0.00 in0.0 mm 0.04 in1.0 mm
12:15 PM 44.8°F7.1°C 17.5°F-8.1°C 33% 6.6 mph SE10.6 kmh SE 14.5 mph23.3 kmh 29.33 in993.2 mb 0.04 in1.0 mm 0.16 in4.1 mm 0.04 in1.0 mm
12:00 PM 44.6°F7.0°C 19.3°F-7.1°C 36% 6.2 mph E10.0 kmh E 17.4 mph28.0 kmh 29.34 in993.6 mb 0.00 in0.0 mm 0.00 in0.0 mm 0.00 in0.0 mm
11:45 AM 43.9°F6.6°C 19.3°F-7.1°C 37% 6.6 mph E10.6 kmh E 16.8 mph27.0 kmh 29.34 in993.6 mb 0.00 in0.0 mm 0.00 in0.0 mm 0.00 in0.0 mm
11:30 AM 44.1°F6.7°C 19.5°F-6.9°C 37% 6.4 mph S10.3 kmh S 14.5 mph23.3 kmh 29.35 in993.9 mb 0.00 in0.0 mm 0.00 in0.0 mm 0.00 in0.0 mm
11:15 AM 44.1°F6.7°C 21.9°F-5.6°C 41% 5.1 mph SE8.2 kmh SE 15.2 mph24.5 kmh 29.35 in993.9 mb 0.00 in0.0 mm 0.00 in0.0 mm 0.00 in0.0 mm
11:00 AM 42.3°F5.7°C 19.7°F-6.8°C 40% 5.9 mph SW9.5 kmh SW 15.9 mph25.6 kmh 29.35 in993.9 mb 0.00 in0.0 mm 0.00 in0.0 mm 0.00 in0.0 mm
10:45 AM 43.3°F6.3°C 22.4°F-5.3°C 43% 4.5 mph ENE7.2 kmh ENE 10.7 mph17.2 kmh 29.36 in994.2 mb 0.00 in0.0 mm 0.00 in0.0 mm 0.00 in0.0 mm
10:30 AM 41.7°F5.4°C 21.4°F-5.9°C 44% 3.9 mph SW6.3 kmh SW 9.8 mph15.8 kmh 29.37 in994.6 mb 0.00 in0.0 mm 0.00 in0.0 mm 0.00 in0.0 mm
10:15 AM 40.5°F4.7°C 21.3°F-5.9°C 46% 5.7 mph NW9.2 kmh NW 12.1 mph19.5 kmh 29.37 in994.6 mb 0.00 in0.0 mm 0.00 in0.0 mm 0.00 in0.0 mm
10:00 AM 41.0°F5.0°C 21.8°F-5.7°C 46% 4.8 mph WNW7.7 kmh WNW 12.1 mph19.5 kmh 29.37 in994.6 mb 0.00 in0.0 mm 0.00 in0.0 mm 0.00 in0.0 mm
09:45 AM 41.2°F5.1°C 22.0°F-5.6°C 46% 5.3 mph W8.5 kmh W 14.5 mph23.3 kmh 29.37 in994.6 mb 0.00 in0.0 mm 0.00 in0.0 mm 0.00 in0.0 mm
09:30 AM 40.5°F4.7°C 22.8°F-5.1°C 49% 4.7 mph S7.6 kmh S 14.5 mph23.3 kmh 29.36 in994.2 mb 0.00 in0.0 mm 0.00 in0.0 mm 0.00 in0.0 mm
09:15 AM 38.8°F3.8°C 23.6°F-4.7°C 54% 5.2 mph NW8.4 kmh NW 13.6 mph21.9 kmh 29.36 in994.2 mb 0.00 in0.0 mm 0.00 in0.0 mm 0.00 in0.0 mm
09:00 AM 37.6°F3.1°C 22.9°F-5.1°C 55% 4.7 mph W7.6 kmh W 16.8 mph27.0 kmh 29.37 in994.6 mb 0.00 in0.0 mm 0.00 in0.0 mm 0.00 in0.0 mm
08:45 AM 37.2°F2.9°C 22.6°F-5.2°C 55% 6.3 mph WSW10.1 kmh WSW 13.6 mph21.9 kmh 29.38 in994.9 mb 0.00 in0.0 mm 0.00 in0.0 mm 0.00 in0.0 mm
08:30 AM 37.0°F2.8°C 22.4°F-5.3°C 55% 5.0 mph SE8.0 kmh SE 11.4 mph18.3 kmh 29.37 in994.6 mb 0.00 in0.0 mm 0.00 in0.0 mm 0.00 in0.0 mm
08:15 AM 37.4°F3.0°C 20.5°F-6.4°C 50% 5.3 mph WNW8.5 kmh WNW 13.0 mph20.9 kmh 29.36 in994.2 mb 0.00 in0.0 mm 0.00 in0.0 mm 0.00 in0.0 mm
08:00 AM 37.4°F3.0°C 20.5°F-6.4°C 50% 6.2 mph NNW10.0 kmh NNW 19.0 mph30.6 kmh 29.35 in993.9 mb 0.00 in0.0 mm 0.00 in0.0 mm 0.00 in0.0 mm
07:45 AM 37.9°F3.3°C 19.5°F-6.9°C 47% 5.7 mph WNW9.2 kmh WNW 17.4 mph28.0 kmh 29.35 in993.9 mb 0.00 in0.0 mm 0.00 in0.0 mm 0.00 in0.0 mm
07:30 AM 37.6°F3.1°C 19.2°F-7.1°C 47% 4.1 mph W6.6 kmh W 18.3 mph29.5 kmh 29.36 in994.2 mb 0.00 in0.0 mm 0.00 in0.0 mm 0.00 in0.0 mm
07:15 AM 38.1°F3.4°C 19.7°F-6.8°C 47% 5.4 mph W8.7 kmh W 15.2 mph24.5 kmh 29.37 in994.6 mb 0.00 in0.0 mm 0.00 in0.0 mm 0.00 in0.0 mm
07:00 AM 37.8°F3.2°C 19.9°F-6.7°C 48% 4.6 mph NW7.4 kmh NW 12.1 mph19.5 kmh 29.36 in994.2 mb 0.00 in0.0 mm 0.00 in0.0 mm 0.00 in0.0 mm
06:45 AM 37.8°F3.2°C 20.3°F-6.5°C 49% 5.3 mph W8.5 kmh W 10.7 mph17.2 kmh 29.37 in994.6 mb 0.00 in0.0 mm 0.00 in0.0 mm 0.00 in0.0 mm
06:30 AM 38.3°F3.5°C 20.4°F-6.4°C 48% 5.7 mph NW9.2 kmh NW 14.5 mph23.3 kmh 29.37 in994.6 mb 0.00 in0.0 mm 0.00 in0.0 mm 0.00 in0.0 mm
06:15 AM 38.1°F3.4°C 21.1°F-6.1°C 50% 3.3 mph W5.3 kmh W 10.7 mph17.2 kmh 29.37 in994.6 mb 0.00 in0.0 mm 0.00 in0.0 mm 0.00 in0.0 mm
06:00 AM 38.1°F3.4°C 21.1°F-6.1°C 50% 4.2 mph WNW6.8 kmh WNW 9.8 mph15.8 kmh 29.38 in994.9 mb 0.00 in0.0 mm 0.00 in0.0 mm 0.00 in0.0 mm
05:45 AM 37.9°F3.3°C 24.1°F-4.4°C 57% 3.7 mph WSW6.0 kmh WSW 9.8 mph15.8 kmh 29.38 in994.9 mb 0.00 in0.0 mm 0.00 in0.0 mm 0.00 in0.0 mm
05:30 AM 37.9°F3.3°C 26.5°F-3.1°C 63% 5.1 mph NW8.2 kmh NW 13.6 mph21.9 kmh 29.38 in994.9 mb 0.00 in0.0 mm 0.00 in0.0 mm 0.00 in0.0 mm
05:15 AM 37.8°F3.2°C 27.8°F-2.3°C 67% 3.3 mph SW5.3 kmh SW 9.2 mph14.8 kmh 29.39 in995.3 mb 0.00 in0.0 mm 0.00 in0.0 mm 0.00 in0.0 mm
05:00 AM 37.8°F3.2°C 28.2°F-2.1°C 68% 5.2 mph WNW8.4 kmh WNW 12.1 mph19.5 kmh 29.39 in995.3 mb 0.00 in0.0 mm 0.00 in0.0 mm 0.00 in0.0 mm
03:30 AM 33.8°F1.0°C 30.9°F-0.6°C 89% 2.2 mph NNW3.5 kmh NNW 6.0 mph9.7 kmh 29.39 in995.3 mb 0.00 in0.0 mm 0.00 in0.0 mm 0.00 in0.0 mm
03:15 AM 32.4°F0.2°C 29.5°F-1.4°C 89% 0.1 mph NNW0.2 kmh NNW 1.6 mph2.6 kmh 29.41 in995.9 mb 0.00 in0.0 mm 0.00 in0.0 mm 0.00 in0.0 mm
03:00 AM 31.5°F-0.3°C 28.6°F-1.9°C 89% Calm Calm 1.6 mph2.6 kmh 29.42 in996.3 mb 0.00 in0.0 mm 0.00 in0.0 mm 0.00 in0.0 mm
02:00 AM 30.6°F-0.8°C 27.4°F-2.6°C 88% Calm Calm 0.7 mph1.1 kmh 29.43 in996.6 mb 0.00 in0.0 mm 0.00 in0.0 mm 0.00 in0.0 mm
01:45 AM 31.1°F-0.5°C 27.7°F-2.4°C 87% 0.4 mph NNE0.6 kmh NNE 2.2 mph3.5 kmh 29.43 in996.6 mb 0.00 in0.0 mm 0.00 in0.0 mm 0.00 in0.0 mm
01:15 AM 31.5°F-0.3°C 28.1°F-2.2°C 87% 0.1 mph NW0.2 kmh NW 1.6 mph2.6 kmh 29.43 in996.6 mb 0.00 in0.0 mm 0.00 in0.0 mm 0.00 in0.0 mm
12:30 AM 33.1°F0.6°C 29.4°F-1.4°C 86% 0.1 mph N0.2 kmh N 1.6 mph2.6 kmh 29.45 in997.3 mb 0.00 in0.0 mm 0.00 in0.0 mm 0.00 in0.0 mm